Time;durP1;ratioP1;P1;durP2;ratioP2;P2;SDS_P1;SDS_P2;PMS_P1;PMS_P2;Temp;Humidity;BMP_temperature;BMP_pressure;BME280_temperature;BME280_humidity;BME280_pressure;Samples;Min_cycle;Max_cycle;Signal;HPM_P1;HPM_P2
2022/10/29 00:02:04;;;;;;;34.60;5.82;;;14.00;99.90;;;;;;5063364;28;20392;-74
2022/10/29 00:04:29;;;;;;;31.58;5.45;;;14.00;99.90;;;;;;5061579;28;20025;-75
2022/10/29 00:06:57;;;;;;;26.75;5.55;;;14.00;99.90;;;;;;5037734;28;20036;-74
2022/10/29 00:09:22;;;;;;;41.70;6.63;;;14.00;99.90;;;;;;5058983;28;20036;-75
2022/10/29 00:11:48;;;;;;;30.92;5.90;;;14.00;99.90;;;;;;5050860;28;20113;-77
2022/10/29 00:14:15;;;;;;;29.42;5.75;;;14.00;99.90;;;;;;5049941;28;20028;-74
2022/10/29 00:16:41;;;;;;;31.38;6.00;;;14.00;99.90;;;;;;5049767;28;20520;-74
2022/10/29 00:19:06;;;;;;;35.15;6.25;;;14.00;99.90;;;;;;5051900;28;20021;-74
2022/10/29 00:21:33;;;;;;;35.38;6.20;;;13.90;99.90;;;;;;5055367;28;20016;-75
2022/10/29 00:23:59;;;;;;;33.88;6.40;;;13.90;99.90;;;;;;5060961;28;20021;-74
2022/10/29 00:26:26;;;;;;;35.97;6.35;;;13.90;99.90;;;;;;5047753;28;20398;-75
2022/10/29 00:28:54;;;;;;;34.03;6.47;;;13.90;99.90;;;;;;5044667;28;20025;-74
2022/10/29 00:31:23;;;;;;;37.78;6.90;;;13.90;99.90;;;;;;5053950;28;20032;-76
2022/10/29 00:33:49;;;;;;;33.45;6.90;;;13.90;99.90;;;;;;5037446;28;20017;-74
2022/10/29 00:36:23;;;;;;;33.50;6.63;;;13.90;99.90;;;;;;5066117;28;20127;-74
2022/10/29 00:38:49;;;;;;;29.80;6.38;;;13.90;99.90;;;;;;5051875;28;20021;-75
2022/10/29 00:41:18;;;;;;;30.88;7.00;;;13.90;99.90;;;;;;5067235;28;20104;-74
2022/10/29 00:43:50;;;;;;;32.00;6.68;;;13.90;99.90;;;;;;5051514;28;20025;-75
2022/10/29 00:46:23;;;;;;;27.17;6.15;;;13.90;99.90;;;;;;5066093;28;20432;-74
2022/10/29 00:48:53;;;;;;;36.53;7.00;;;13.90;99.90;;;;;;5039920;28;20250;-74
2022/10/29 00:51:19;;;;;;;40.47;7.10;;;13.90;99.90;;;;;;5051556;28;20021;-75
2022/10/29 00:53:51;;;;;;;32.60;6.90;;;13.90;99.90;;;;;;5064784;28;20476;-74
2022/10/29 00:56:17;;;;;;;28.30;6.25;;;13.90;99.90;;;;;;5036568;28;20500;-74
2022/10/29 00:58:43;;;;;;;31.75;6.00;;;13.90;99.90;;;;;;5042960;28;20032;-75
2022/10/29 01:01:09;;;;;;;32.75;6.63;;;13.80;99.90;;;;;;5050445;28;20029;-75
2022/10/29 01:03:38;;;;;;;26.55;6.25;;;13.90;99.90;;;;;;5041020;28;20025;-74
2022/10/29 01:06:04;;;;;;;28.02;6.03;;;13.80;99.90;;;;;;5038939;28;20041;-77
2022/10/29 01:08:30;;;;;;;35.50;5.97;;;13.80;99.90;;;;;;5052617;28;20146;-74
2022/10/29 01:11:20;;;;;;;27.38;6.13;;;13.80;99.90;;;;;;5053058;28;20055;-75
2022/10/29 01:14:10;;;;;;;21.35;5.38;;;13.80;99.90;;;;;;5039100;28;20426;-74
2022/10/29 01:16:52;;;;;;;38.58;6.68;;;13.70;99.90;;;;;;5065414;28;20985;-75
2022/10/29 01:19:30;;;;;;;20.73;5.63;;;13.70;99.90;;;;;;5061217;28;20036;-74
2022/10/29 01:22:15;;;;;;;28.95;6.03;;;13.60;99.90;;;;;;5072967;28;20032;-74
2022/10/29 01:24:58;;;;;;;22.13;5.47;;;13.60;99.90;;;;;;5054272;28;20154;-74
2022/10/29 01:27:48;;;;;;;24.48;5.93;;;13.60;99.90;;;;;;5046949;28;20083;-75
2022/10/29 01:30:50;;;;;;;23.58;5.75;;;13.50;99.90;;;;;;5046444;28;20025;-74
2022/10/29 01:33:27;;;;;;;25.52;5.60;;;13.50;99.90;;;;;;5041396;28;20045;-75
2022/10/29 01:36:10;;;;;;;27.05;5.95;;;13.40;99.90;;;;;;5051339;28;20214;-74
2022/10/29 01:38:53;;;;;;;23.08;5.57;;;13.40;99.90;;;;;;5052651;28;20074;-74
2022/10/29 01:41:31;;;;;;;22.00;5.70;;;13.40;99.90;;;;;;5040395;28;20021;-75
2022/10/29 01:44:07;;;;;;;24.17;5.40;;;13.40;99.90;;;;;;5051444;28;20437;-74
2022/10/29 01:46:45;;;;;;;19.83;6.13;;;13.30;99.90;;;;;;5052418;28;20091;-75
2022/10/29 01:49:17;;;;;;;28.98;6.20;;;13.30;99.90;;;;;;5063597;28;20037;-74
2022/10/29 01:51:44;;;;;;;24.75;5.30;;;13.20;99.90;;;;;;5049829;28;20097;-76
2022/10/29 01:54:11;;;;;;;18.13;5.10;;;13.20;99.90;;;;;;5055351;28;20021;-75
2022/10/29 01:56:37;;;;;;;18.48;4.93;;;13.10;99.90;;;;;;5065124;28;20051;-75
2022/10/29 01:59:08;;;;;;;22.98;6.05;;;13.10;99.90;;;;;;5064894;28;20131;-75
2022/10/29 02:02:03;;;;;;;23.55;5.18;;;13.10;99.90;;;;;;5065322;28;20044;-74
2022/10/29 02:04:42;;;;;;;26.75;6.35;;;13.10;99.90;;;;;;5049125;28;20049;-75
2022/10/29 02:07:30;;;;;;;24.90;5.25;;;13.10;99.90;;;;;;5061117;28;20464;-74
2022/10/29 02:10:11;;;;;;;21.33;5.25;;;13.00;99.90;;;;;;5051206;28;20028;-75
2022/10/29 02:12:49;;;;;;;21.70;5.95;;;13.00;99.90;;;;;;5050713;28;20021;-75
2022/10/29 02:15:18;;;;;;;17.98;5.00;;;13.00;99.90;;;;;;5052047;28;20036;-75
2022/10/29 02:17:44;;;;;;;15.20;5.55;;;13.00;99.90;;;;;;5052069;28;20031;-76
2022/10/29 02:20:11;;;;;;;18.88;5.30;;;13.00;99.90;;;;;;5050536;28;20013;-74
2022/10/29 02:22:37;;;;;;;17.95;5.47;;;13.00;99.90;;;;;;5053587;28;20515;-75
2022/10/29 02:25:04;;;;;;;17.23;4.95;;;13.00;99.90;;;;;;5056085;28;20057;-76
2022/10/29 02:27:30;;;;;;;15.55;5.28;;;13.00;99.90;;;;;;5051836;28;20495;-74
2022/10/29 02:29:55;;;;;;;21.88;5.88;;;13.00;99.90;;;;;;5051505;28;20029;-74
2022/10/29 02:32:21;;;;;;;20.98;5.18;;;13.00;99.90;;;;;;5047394;28;20022;-74
2022/10/29 02:34:46;;;;;;;17.40;5.68;;;13.00;99.90;;;;;;5040690;28;20078;-76
2022/10/29 02:37:12;;;;;;;18.63;5.47;;;13.00;99.90;;;;;;5034761;28;20412;-74
2022/10/29 02:39:38;;;;;;;16.13;5.30;;;13.00;99.90;;;;;;5039182;28;20064;-75
2022/10/29 02:42:03;;;;;;;20.23;5.78;;;12.90;99.90;;;;;;5050331;28;20098;-74
2022/10/29 02:44:29;;;;;;;23.83;6.40;;;13.00;99.90;;;;;;5044025;28;20507;-75
2022/10/29 02:46:54;;;;;;;20.55;6.03;;;13.00;99.90;;;;;;5042405;28;20037;-76
2022/10/29 02:49:20;;;;;;;21.30;5.82;;;13.00;99.90;;;;;;5049860;28;20040;-75
2022/10/29 02:51:46;;;;;;;23.83;7.03;;;13.00;99.90;;;;;;5051725;28;20453;-75
2022/10/29 02:54:11;;;;;;;21.05;6.20;;;13.00;99.90;;;;;;5036601;28;20401;-75
2022/10/29 02:56:37;;;;;;;16.83;5.90;;;13.00;99.90;;;;;;5071130;28;20020;-75
2022/10/29 02:59:02;;;;;;;21.05;6.25;;;13.00;99.90;;;;;;5056442;28;20107;-75
2022/10/29 03:01:28;;;;;;;14.85;5.68;;;13.00;99.90;;;;;;5060088;28;20105;-75
2022/10/29 03:03:53;;;;;;;17.23;5.70;;;12.90;99.90;;;;;;5041652;28;20397;-75
2022/10/29 03:06:19;;;;;;;16.70;5.32;;;12.90;99.90;;;;;;5066995;28;20035;-74
2022/10/29 03:08:45;;;;;;;15.77;5.93;;;12.90;99.90;;;;;;5060462;28;20021;-75
2022/10/29 03:11:11;;;;;;;15.25;5.47;;;12.90;99.90;;;;;;5050636;28;20031;-76
2022/10/29 03:13:37;;;;;;;16.92;5.65;;;12.90;99.90;;;;;;5057233;28;20465;-74
2022/10/29 03:16:03;;;;;;;17.45;5.53;;;12.90;99.90;;;;;;5055772;28;20017;-75
2022/10/29 03:18:29;;;;;;;21.67;5.90;;;13.00;99.90;;;;;;5037247;28;20040;-75
2022/10/29 03:20:54;;;;;;;16.40;5.85;;;13.00;99.90;;;;;;5051134;28;20021;-75
2022/10/29 03:23:21;;;;;;;16.63;5.75;;;13.00;99.90;;;;;;5043567;28;20142;-75
2022/10/29 03:25:54;;;;;;;21.85;6.70;;;13.00;99.90;;;;;;5067962;28;20089;-75
2022/10/29 03:28:26;;;;;;;20.00;6.72;;;13.00;99.90;;;;;;5066208;28;20453;-74
2022/10/29 03:30:52;;;;;;;17.70;6.50;;;13.00;99.90;;;;;;5039165;28;20021;-75
2022/10/29 03:33:17;;;;;;;18.17;7.05;;;13.00;99.90;;;;;;5064359;28;20384;-74
2022/10/29 03:35:43;;;;;;;22.98;7.63;;;13.00;99.90;;;;;;5035614;28;20511;-76
2022/10/29 03:38:08;;;;;;;20.23;7.32;;;13.10;99.90;;;;;;5049787;28;20090;-74
2022/10/29 03:40:34;;;;;;;20.83;7.63;;;13.10;99.90;;;;;;5031414;28;20033;-78
2022/10/29 03:43:00;;;;;;;26.63;7.47;;;13.10;99.90;;;;;;5049948;28;20039;-75
2022/10/29 03:45:26;;;;;;;23.58;8.00;;;13.20;99.90;;;;;;5053896;28;20091;-75
2022/10/29 03:47:51;;;;;;;25.83;8.45;;;13.20;99.90;;;;;;5036194;28;20099;-75
2022/10/29 03:50:17;;;;;;;24.20;7.93;;;13.20;99.90;;;;;;5050309;28;20102;-75
2022/10/29 03:52:44;;;;;;;22.38;8.07;;;13.20;99.90;;;;;;5052529;28;20069;-76
2022/10/29 03:55:09;;;;;;;24.33;7.35;;;13.20;99.90;;;;;;5039874;28;20366;-75
2022/10/29 03:57:35;;;;;;;23.98;8.63;;;13.30;99.90;;;;;;5059591;28;20024;-76
2022/10/29 04:00:03;;;;;;;21.92;7.90;;;13.30;99.90;;;;;;5060154;28;20021;-75
2022/10/29 04:02:29;;;;;;;24.38;7.30;;;13.30;99.90;;;;;;5049985;28;20032;-76
2022/10/29 04:04:55;;;;;;;25.15;8.48;;;13.30;99.90;;;;;;5059507;28;20009;-75
2022/10/29 04:07:20;;;;;;;22.02;7.53;;;13.30;99.90;;;;;;5048071;28;20024;-76
2022/10/29 04:09:46;;;;;;;22.55;7.93;;;13.30;99.90;;;;;;5049448;28;20096;-75
2022/10/29 04:12:11;;;;;;;22.15;7.68;;;13.30;99.90;;;;;;5060053;28;20528;-75
2022/10/29 04:14:37;;;;;;;20.08;7.50;;;13.30;99.90;;;;;;5047401;28;20029;-75
2022/10/29 04:17:03;;;;;;;22.52;7.13;;;13.40;99.90;;;;;;5059830;28;20017;-76
2022/10/29 04:19:28;;;;;;;21.92;7.63;;;13.40;99.90;;;;;;5049355;28;20060;-75
2022/10/29 04:21:54;;;;;;;19.80;7.97;;;13.40;99.90;;;;;;5049648;28;20063;-75
2022/10/29 04:24:19;;;;;;;23.58;7.47;;;13.40;99.90;;;;;;5049327;28;20553;-76
2022/10/29 04:26:45;;;;;;;26.05;8.00;;;13.40;99.90;;;;;;5048798;28;20496;-75
2022/10/29 04:29:11;;;;;;;21.45;8.32;;;13.40;99.90;;;;;;5049233;28;20051;-75
2022/10/29 04:31:37;;;;;;;23.80;7.78;;;13.40;99.90;;;;;;5049352;28;20053;-79
2022/10/29 04:34:03;;;;;;;22.60;7.57;;;13.40;99.90;;;;;;5049518;28;20127;-75
2022/10/29 04:36:28;;;;;;;21.67;7.60;;;13.40;99.90;;;;;;5049325;28;20051;-75
2022/10/29 04:38:54;;;;;;;19.70;7.65;;;13.40;99.90;;;;;;5048880;28;20025;-79
2022/10/29 04:41:19;;;;;;;18.90;7.57;;;13.40;99.90;;;;;;5039717;28;20021;-75
2022/10/29 04:43:45;;;;;;;23.65;7.80;;;13.40;99.90;;;;;;5045946;28;20021;-75
2022/10/29 04:46:11;;;;;;;19.33;8.00;;;13.40;99.90;;;;;;5049034;28;20272;-76
2022/10/29 04:48:36;;;;;;;20.00;8.35;;;13.40;99.90;;;;;;5049920;28;20500;-74
2022/10/29 04:51:02;;;;;;;19.38;7.82;;;13.40;99.90;;;;;;5049449;28;20027;-75
2022/10/29 04:53:28;;;;;;;21.48;7.80;;;13.40;99.90;;;;;;5053469;28;20430;-75
2022/10/29 04:56:00;;;;;;;22.67;8.52;;;13.50;99.90;;;;;;5057246;28;20544;-75
2022/10/29 04:58:25;;;;;;;20.63;8.35;;;13.50;99.90;;;;;;5053846;28;20017;-75
2022/10/29 05:00:51;;;;;;;24.38;8.55;;;13.40;99.90;;;;;;5048587;28;20017;-75
2022/10/29 05:03:16;;;;;;;18.02;7.93;;;13.50;99.90;;;;;;5047791;28;20146;-75
2022/10/29 05:05:42;;;;;;;23.92;9.35;;;13.40;99.90;;;;;;5045364;28;20044;-76
2022/10/29 05:08:09;;;;;;;22.65;9.23;;;13.40;99.90;;;;;;5046572;28;20026;-74
2022/10/29 05:10:37;;;;;;;26.75;8.98;;;13.50;99.90;;;;;;5060333;28;20425;-75
2022/10/29 05:13:09;;;;;;;21.83;9.27;;;13.50;99.90;;;;;;5051059;28;20021;-75
2022/10/29 05:15:35;;;;;;;29.70;9.50;;;13.50;99.90;;;;;;5057639;28;20040;-75
2022/10/29 05:18:01;;;;;;;23.85;9.68;;;13.50;99.90;;;;;;5048859;28;20593;-74
2022/10/29 05:20:27;;;;;;;20.30;9.68;;;13.50;99.90;;;;;;5045622;28;20105;-75
2022/10/29 05:22:59;;;;;;;22.30;9.20;;;13.60;99.90;;;;;;5051888;28;20496;-75
2022/10/29 05:25:25;;;;;;;23.08;9.13;;;13.50;99.90;;;;;;5052406;28;20029;-75
2022/10/29 05:27:59;;;;;;;23.67;10.00;;;13.60;99.90;;;;;;5052484;28;20384;-75
2022/10/29 05:30:25;;;;;;;26.27;9.67;;;13.60;99.90;;;;;;5061952;28;20025;-75
2022/10/29 05:32:50;;;;;;;24.77;9.30;;;13.60;99.90;;;;;;5042257;28;20021;-74
2022/10/29 05:35:16;;;;;;;26.35;9.90;;;13.60;99.90;;;;;;5050289;28;20032;-75
2022/10/29 05:37:42;;;;;;;28.38;10.05;;;13.60;99.90;;;;;;5052334;28;20358;-75
2022/10/29 05:40:08;;;;;;;26.67;9.82;;;13.60;99.90;;;;;;5052723;28;20108;-75
2022/10/29 05:42:36;;;;;;;26.15;9.82;;;13.60;99.90;;;;;;5051797;28;20017;-75
2022/10/29 05:45:02;;;;;;;26.73;10.48;;;13.60;99.90;;;;;;5052967;28;20127;-75
2022/10/29 05:47:28;;;;;;;25.35;10.18;;;13.60;99.90;;;;;;5050683;28;20104;-75
2022/10/29 05:49:53;;;;;;;25.08;9.57;;;13.60;99.90;;;;;;5060048;28;20746;-74
2022/10/29 05:52:19;;;;;;;22.42;10.23;;;13.70;99.90;;;;;;5059186;28;20020;-75
2022/10/29 05:54:45;;;;;;;21.15;9.35;;;13.60;99.90;;;;;;5061353;28;20031;-74
2022/10/29 05:57:13;;;;;;;20.63;10.02;;;13.70;99.90;;;;;;5058485;28;20032;-75
2022/10/29 05:59:39;;;;;;;20.92;9.75;;;13.60;99.90;;;;;;5054083;28;20021;-76
2022/10/29 06:02:05;;;;;;;22.30;10.73;;;13.70;99.90;;;;;;5051787;28;20025;-76
2022/10/29 06:04:32;;;;;;;17.83;9.02;;;13.70;99.90;;;;;;5050963;28;20029;-76
2022/10/29 06:06:59;;;;;;;24.58;9.52;;;13.70;99.90;;;;;;5048280;28;20036;-74
2022/10/29 06:09:25;;;;;;;25.55;10.65;;;13.70;99.90;;;;;;5054176;28;20563;-74
2022/10/29 06:11:52;;;;;;;22.20;9.95;;;13.70;99.90;;;;;;5051369;28;20044;-75
2022/10/29 06:14:17;;;;;;;22.02;9.95;;;13.70;99.90;;;;;;5056059;28;20523;-75
2022/10/29 06:16:43;;;;;;;26.25;11.13;;;13.70;99.90;;;;;;5054693;28;20016;-75
2022/10/29 06:19:08;;;;;;;23.30;11.07;;;13.70;99.90;;;;;;5052940;28;20048;-75
2022/10/29 06:21:34;;;;;;;28.55;11.40;;;13.70;99.90;;;;;;5058671;28;20625;-75
2022/10/29 06:24:00;;;;;;;21.65;11.10;;;13.70;99.90;;;;;;5053217;28;20025;-75
2022/10/29 06:26:25;;;;;;;30.00;11.45;;;13.70;99.90;;;;;;5051500;28;20601;-75
2022/10/29 06:28:51;;;;;;;27.02;12.48;;;13.70;99.90;;;;;;5063397;28;20079;-76
2022/10/29 06:31:17;;;;;;;29.65;11.98;;;13.70;99.90;;;;;;5051119;28;20020;-75
2022/10/29 06:33:42;;;;;;;24.50;12.73;;;13.80;99.90;;;;;;5050347;28;20017;-76
2022/10/29 06:36:08;;;;;;;27.85;13.13;;;13.80;99.90;;;;;;5050633;28;20025;-75
2022/10/29 06:38:33;;;;;;;31.05;13.40;;;13.80;99.90;;;;;;5053553;28;20093;-75
2022/10/29 06:40:59;;;;;;;31.23;13.88;;;13.80;99.90;;;;;;5053858;28;20032;-76
2022/10/29 06:43:25;;;;;;;34.42;14.70;;;13.80;99.90;;;;;;5050600;28;20404;-73
2022/10/29 06:45:50;;;;;;;28.02;13.93;;;13.80;99.90;;;;;;5044345;28;20041;-74
2022/10/29 06:48:16;;;;;;;26.45;13.70;;;13.80;99.90;;;;;;5043538;28;20508;-74
2022/10/29 06:50:42;;;;;;;24.88;13.52;;;13.80;99.90;;;;;;5037856;28;20025;-74
2022/10/29 06:53:12;;;;;;;29.38;13.32;;;13.80;99.90;;;;;;5042969;28;20029;-75
2022/10/29 06:55:38;;;;;;;28.17;14.63;;;13.80;99.90;;;;;;5044892;28;20033;-74
2022/10/29 06:58:15;;;;;;;29.00;15.23;;;13.80;99.90;;;;;;5049285;28;20028;-73
2022/10/29 07:00:41;;;;;;;29.40;14.98;;;13.90;99.90;;;;;;5047863;28;20056;-77
2022/10/29 07:03:12;;;;;;;26.27;14.77;;;13.90;99.90;;;;;;5053212;28;20374;-75
2022/10/29 07:05:38;;;;;;;28.20;14.55;;;13.90;99.90;;;;;;5049375;28;20033;-74
2022/10/29 07:08:04;;;;;;;30.42;14.35;;;13.90;99.90;;;;;;5048351;28;20134;-74
2022/10/29 07:10:31;;;;;;;35.13;17.02;;;13.90;99.90;;;;;;5048452;28;20021;-73
2022/10/29 07:12:57;;;;;;;27.73;16.00;;;14.00;99.90;;;;;;5049901;28;20021;-74
2022/10/29 07:15:23;;;;;;;32.35;17.63;;;14.00;99.90;;;;;;5049773;28;20029;-76
2022/10/29 07:18:00;;;;;;;33.38;18.13;;;14.00;99.90;;;;;;5050102;28;20092;-75
2022/10/29 07:20:30;;;;;;;32.13;16.67;;;14.10;99.90;;;;;;5040374;28;20029;-75
2022/10/29 07:22:56;;;;;;;35.17;18.33;;;14.10;99.90;;;;;;5050726;28;20036;-72
2022/10/29 07:25:22;;;;;;;35.88;18.83;;;14.10;99.90;;;;;;5049850;28;20542;-73
2022/10/29 07:27:48;;;;;;;38.03;18.90;;;14.20;99.90;;;;;;5049841;28;20381;-72
2022/10/29 07:30:14;;;;;;;42.60;20.02;;;14.20;99.90;;;;;;5049887;28;20021;-72
2022/10/29 07:32:40;;;;;;;38.45;20.27;;;14.20;99.90;;;;;;5050310;28;20029;-73
2022/10/29 07:35:06;;;;;;;36.67;21.10;;;14.30;99.90;;;;;;5049888;28;20354;-72
2022/10/29 07:37:31;;;;;;;44.03;20.92;;;14.30;99.90;;;;;;5050379;28;20090;-72
2022/10/29 07:39:57;;;;;;;41.30;21.52;;;14.40;99.90;;;;;;5050043;28;20147;-75
2022/10/29 07:42:23;;;;;;;52.33;23.13;;;14.50;99.90;;;;;;5049456;28;20546;-73
2022/10/29 07:44:48;;;;;;;44.28;22.02;;;14.50;99.90;;;;;;5050345;28;20056;-73
2022/10/29 07:47:14;;;;;;;48.67;23.33;;;14.60;99.90;;;;;;5049561;28;20561;-73
2022/10/29 07:49:41;;;;;;;45.20;22.02;;;14.60;99.90;;;;;;5050024;28;20076;-73
2022/10/29 07:52:07;;;;;;;49.47;22.90;;;14.70;99.90;;;;;;5048551;28;20057;-72
2022/10/29 07:54:33;;;;;;;47.28;23.20;;;14.80;99.90;;;;;;5049810;28;20133;-72
2022/10/29 07:56:59;;;;;;;47.35;23.85;;;14.80;99.90;;;;;;5048112;28;20021;-72
2022/10/29 07:59:24;;;;;;;46.10;22.75;;;14.90;99.90;;;;;;5049511;28;20083;-72
2022/10/29 08:01:50;;;;;;;44.65;23.40;;;14.90;99.90;;;;;;5050037;28;20025;-73
2022/10/29 08:04:15;;;;;;;50.17;22.98;;;15.00;99.90;;;;;;5048007;28;20507;-73
2022/10/29 08:06:41;;;;;;;43.85;22.00;;;15.00;99.90;;;;;;5048361;28;20064;-73
2022/10/29 08:09:07;;;;;;;45.33;22.10;;;15.00;99.90;;;;;;5050807;28;20505;-73
2022/10/29 08:11:33;;;;;;;50.42;23.10;;;15.10;99.90;;;;;;5041509;28;20407;-74
2022/10/29 08:13:59;;;;;;;43.22;22.25;;;15.10;99.90;;;;;;5043401;28;20529;-73
2022/10/29 08:16:24;;;;;;;45.63;23.23;;;15.10;99.90;;;;;;5049403;28;20035;-72
2022/10/29 08:18:50;;;;;;;46.08;22.67;;;15.20;99.90;;;;;;5049940;28;20031;-73
2022/10/29 08:21:16;;;;;;;48.70;23.50;;;15.20;99.90;;;;;;5049351;28;20086;-72
2022/10/29 08:23:42;;;;;;;47.03;22.55;;;15.20;99.90;;;;;;5050123;28;20017;-72
2022/10/29 08:26:08;;;;;;;43.80;23.13;;;15.20;99.90;;;;;;5049141;28;20492;-72
2022/10/29 08:28:34;;;;;;;43.08;23.65;;;15.30;99.90;;;;;;5035057;28;20025;-73
2022/10/29 08:30:59;;;;;;;48.50;22.83;;;15.30;99.90;;;;;;5049633;28;20082;-73
2022/10/29 08:33:25;;;;;;;44.90;24.25;;;15.40;99.90;;;;;;5048936;28;20036;-73
2022/10/29 08:35:51;;;;;;;43.40;23.58;;;15.40;99.90;;;;;;5049780;28;20088;-74
2022/10/29 08:38:17;;;;;;;45.97;23.83;;;15.50;99.90;;;;;;5048818;28;20029;-74
2022/10/29 08:41:07;;;;;;;49.58;24.52;;;15.50;99.90;;;;;;5053161;28;20044;-74
2022/10/29 08:43:53;;;;;;;44.55;23.13;;;15.60;99.90;;;;;;5053235;28;20481;-77
2022/10/29 08:47:07;;;;;;;53.08;22.98;;;15.70;99.90;;;;;;5042298;28;20447;-73
2022/10/29 08:50:00;;;;;;;50.05;24.25;;;15.70;99.90;;;;;;5035795;28;20076;-74
2022/10/29 08:52:28;;;;;;;39.92;23.38;;;15.70;99.90;;;;;;5038225;28;20068;-72
2022/10/29 08:55:06;;;;;;;44.13;24.33;;;15.80;99.90;;;;;;5052685;28;20039;-75
2022/10/29 08:57:37;;;;;;;50.90;24.30;;;15.80;99.90;;;;;;5046000;28;20021;-73
2022/10/29 09:00:13;;;;;;;39.85;23.52;;;15.90;99.90;;;;;;5053743;28;20057;-73
2022/10/29 09:02:39;;;;;;;45.50;23.58;;;16.00;99.90;;;;;;5054177;28;20020;-72
2022/10/29 09:05:05;;;;;;;40.33;21.90;;;16.00;99.90;;;;;;5052900;28;20480;-72
2022/10/29 09:07:52;;;;;;;44.35;22.67;;;16.10;99.90;;;;;;5052674;28;20504;-72
2022/10/29 09:10:23;;;;;;;46.50;23.55;;;16.10;99.90;;;;;;5052678;28;20024;-72
2022/10/29 09:13:03;;;;;;;38.60;22.38;;;16.10;99.90;;;;;;5052675;28;20037;-73
2022/10/29 09:16:08;;;;;;;40.08;22.50;;;16.10;99.90;;;;;;5052472;28;20100;-72
2022/10/29 09:18:33;;;;;;;42.38;21.73;;;16.10;99.90;;;;;;5040360;28;20021;-74
2022/10/29 09:21:31;;;;;;;38.67;21.23;;;16.20;99.90;;;;;;5054973;28;20052;-73
2022/10/29 09:24:08;;;;;;;35.15;20.38;;;16.20;99.90;;;;;;5052398;28;20107;-73
2022/10/29 09:26:40;;;;;;;36.40;20.73;;;16.20;99.90;;;;;;5051118;28;20064;-73
2022/10/29 09:29:17;;;;;;;43.85;21.20;;;16.20;99.90;;;;;;5039866;28;20376;-73
2022/10/29 09:31:49;;;;;;;43.85;20.30;;;16.20;99.90;;;;;;5046983;28;20416;-72
2022/10/29 09:34:36;;;;;;;37.70;20.90;;;16.20;99.90;;;;;;5052321;28;20029;-72
2022/10/29 09:37:09;;;;;;;37.60;21.33;;;16.30;99.90;;;;;;5052025;28;20021;-72
2022/10/29 09:39:39;;;;;;;40.63;20.83;;;16.30;99.90;;;;;;5051765;28;20560;-72
2022/10/29 09:42:12;;;;;;;38.05;20.92;;;16.30;99.90;;;;;;5051914;28;20029;-74
2022/10/29 09:44:47;;;;;;;37.85;19.73;;;16.40;99.90;;;;;;5053040;28;20033;-74
2022/10/29 09:47:36;;;;;;;37.17;19.83;;;16.40;99.90;;;;;;5051688;28;20059;-73
2022/10/29 09:50:06;;;;;;;38.03;20.02;;;16.50;99.90;;;;;;5051240;28;20025;-73
2022/10/29 09:52:34;;;;;;;36.83;19.17;;;16.50;99.90;;;;;;5052050;28;20031;-72
2022/10/29 09:55:03;;;;;;;41.45;19.52;;;16.60;99.90;;;;;;5051711;28;20751;-72
2022/10/29 09:57:32;;;;;;;35.55;18.38;;;16.60;99.90;;;;;;5050163;28;20035;-73
2022/10/29 10:00:01;;;;;;;38.53;18.23;;;16.70;99.90;;;;;;5050119;28;20120;-73
2022/10/29 10:02:37;;;;;;;38.97;17.30;;;16.80;99.90;;;;;;5051488;28;20053;-72
2022/10/29 10:05:11;;;;;;;32.92;16.40;;;16.90;99.90;;;;;;5050777;28;20212;-74
2022/10/29 10:07:37;;;;;;;33.27;16.03;;;17.10;99.90;;;;;;5053368;28;20067;-72
2022/10/29 10:10:05;;;;;;;27.23;14.73;;;17.30;99.90;;;;;;5054521;28;20052;-71
2022/10/29 10:12:36;;;;;;;29.10;14.23;;;17.40;99.90;;;;;;5051913;28;20052;-72
2022/10/29 10:15:14;;;;;;;28.80;13.57;;;17.60;99.90;;;;;;5050673;28;20013;-73
2022/10/29 10:17:55;;;;;;;30.10;13.77;;;17.70;99.90;;;;;;5054385;28;20419;-72
2022/10/29 10:20:29;;;;;;;28.23;12.90;;;17.80;99.90;;;;;;5053985;28;20044;-73
2022/10/29 10:22:55;;;;;;;26.65;12.85;;;17.80;99.90;;;;;;5051000;28;20029;-73
2022/10/29 10:25:38;;;;;;;26.65;12.90;;;17.80;99.90;;;;;;5054574;28;20404;-73
2022/10/29 10:28:18;;;;;;;27.65;12.15;;;17.90;99.90;;;;;;5054260;28;20059;-72
2022/10/29 10:30:45;;;;;;;26.75;12.45;;;17.90;99.90;;;;;;5055286;28;20029;-73
2022/10/29 10:33:23;;;;;;;28.13;11.82;;;18.10;99.90;;;;;;5051578;28;20053;-72
2022/10/29 10:35:48;;;;;;;22.15;11.85;;;18.20;99.90;;;;;;5049579;28;20017;-72
2022/10/29 10:38:14;;;;;;;24.10;11.02;;;18.30;99.90;;;;;;5061439;28;20028;-72
2022/10/29 10:40:41;;;;;;;26.08;11.32;;;18.50;99.90;;;;;;5062797;28;20043;-73
2022/10/29 10:43:18;;;;;;;24.08;10.57;;;18.60;99.90;;;;;;5050946;28;20063;-74
2022/10/29 10:45:53;;;;;;;31.88;10.90;;;18.80;99.90;;;;;;5057100;28;20045;-73
2022/10/29 10:48:23;;;;;;;26.70;10.40;;;18.90;99.90;;;;;;5051011;28;20023;-74
2022/10/29 10:50:49;;;;;;;21.55;9.82;;;19.00;99.90;;;;;;5050814;28;20075;-73
2022/10/29 10:53:20;;;;;;;23.52;9.77;;;19.10;99.90;;;;;;5061632;28;20024;-73
2022/10/29 10:55:50;;;;;;;25.13;9.93;;;19.20;99.90;;;;;;5061811;28;20031;-74
2022/10/29 10:58:24;;;;;;;20.92;8.75;;;19.20;99.90;;;;;;5052778;28;20082;-73
2022/10/29 11:01:01;;;;;;;24.53;8.87;;;19.30;99.90;;;;;;5055651;28;20021;-73
2022/10/29 11:03:44;;;;;;;26.52;9.20;;;19.30;99.90;;;;;;5050474;28;20029;-73
2022/10/29 11:06:38;;;;;;;22.25;9.18;;;19.30;99.90;;;;;;5050851;28;20040;-73
2022/10/29 11:09:13;;;;;;;16.77;8.57;;;19.30;99.90;;;;;;5044874;28;20028;-73
2022/10/29 11:11:47;;;;;;;19.38;9.10;;;19.20;99.90;;;;;;5061509;28;20136;-73
2022/10/29 11:14:33;;;;;;;20.42;8.68;;;19.30;99.90;;;;;;5050845;28;20048;-73
2022/10/29 11:17:02;;;;;;;18.77;8.20;;;19.30;99.90;;;;;;5049280;28;20033;-73
2022/10/29 11:19:57;;;;;;;25.00;9.02;;;19.40;99.90;;;;;;5051013;28;20021;-74
2022/10/29 11:22:49;;;;;;;26.65;8.77;;;19.40;99.90;;;;;;5030393;28;20091;-73
2022/10/29 11:25:20;;;;;;;21.60;8.40;;;19.50;99.90;;;;;;5053159;28;20021;-73
2022/10/29 11:28:14;;;;;;;23.77;8.90;;;19.50;99.90;;;;;;5056910;28;20029;-73
2022/10/29 11:30:49;;;;;;;19.88;7.90;;;19.60;99.90;;;;;;5041976;28;20021;-73
2022/10/29 11:33:31;;;;;;;;;;;19.60;99.90;;;;;;5042902;28;20401;-72
2022/10/29 11:36:21;;;;;;;17.80;8.00;;;19.70;99.90;;;;;;5058821;28;19904;-73
2022/10/29 11:38:56;;;;;;;23.05;8.35;;;19.80;99.90;;;;;;5053921;28;20028;-73
2022/10/29 11:41:29;;;;;;;21.60;8.45;;;19.90;99.90;;;;;;5055213;28;20298;-73
2022/10/29 11:43:54;;;;;;;21.23;7.60;;;20.00;99.90;;;;;;5055427;28;20025;-73
2022/10/29 11:46:43;;;;;;;17.35;7.93;;;20.10;99.90;;;;;;5054061;28;20202;-73
2022/10/29 11:49:17;;;;;;;22.25;7.13;;;20.20;99.90;;;;;;5041268;28;20043;-73
2022/10/29 11:51:59;;;;;;;28.02;7.63;;;20.40;99.90;;;;;;5046620;28;20025;-73
2022/10/29 11:54:56;;;;;;;20.88;7.80;;;20.60;99.90;;;;;;5037543;28;20084;-73
2022/10/29 11:57:42;;;;;;;24.27;7.25;;;20.80;99.90;;;;;;5054011;28;20461;-73
2022/10/29 12:00:19;;;;;;;23.83;7.57;;;20.90;99.90;;;;;;5058377;28;20025;-73
2022/10/29 12:03:17;;;;;;;23.65;7.32;;;21.00;99.90;;;;;;5043090;28;20074;-72
2022/10/29 12:05:50;;;;;;;20.17;7.53;;;21.20;99.90;;;;;;5056877;28;20040;-73
2022/10/29 12:08:38;;;;;;;22.98;7.28;;;21.20;99.90;;;;;;5044238;28;20013;-72
2022/10/29 12:11:24;;;;;;;20.00;6.95;;;21.30;99.90;;;;;;5064244;28;20037;-74
2022/10/29 12:14:20;;;;;;;21.60;7.00;;;21.40;99.90;;;;;;5055557;28;20091;-72
2022/10/29 12:17:12;;;;;;;23.20;7.47;;;21.50;99.90;;;;;;5060050;28;20017;-73
2022/10/29 12:20:17;;;;;;;25.33;7.20;;;21.60;99.90;;;;;;5062065;28;20095;-74
2022/10/29 12:23:03;;;;;;;24.00;7.18;;;21.70;99.90;;;;;;5061699;28;20025;-74
2022/10/29 12:25:54;;;;;;;22.63;7.18;;;21.80;99.90;;;;;;5058870;28;20118;-73
2022/10/29 12:28:57;;;;;;;24.05;7.00;;;21.90;99.90;;;;;;5060705;28;20033;-74
2022/10/29 12:31:35;;;;;;;21.40;7.13;;;21.90;99.90;;;;;;5061258;28;20031;-73
2022/10/29 12:34:13;;;;;;;21.20;6.28;;;21.90;99.90;;;;;;5060695;28;20029;-73
2022/10/29 12:36:57;;;;;;;21.10;6.70;;;21.90;99.90;;;;;;5061217;28;20087;-73
2022/10/29 12:39:40;;;;;;;19.70;6.57;;;21.90;99.90;;;;;;5049482;28;20037;-74
2022/10/29 12:42:25;;;;;;;23.40;7.45;;;21.90;99.90;;;;;;5064842;28;20036;-74
2022/10/29 12:45:01;;;;;;;26.10;6.90;;;21.90;99.90;;;;;;5061367;28;20132;-74
2022/10/29 12:47:59;;;;;;;18.13;6.93;;;22.00;99.90;;;;;;5059129;28;20092;-73
2022/10/29 12:50:33;;;;;;;22.10;7.00;;;22.00;99.90;;;;;;5064483;28;20021;-73
2022/10/29 12:53:11;;;;;;;20.80;6.55;;;22.10;99.90;;;;;;5061329;28;20036;-74
2022/10/29 12:55:38;;;;;;;14.27;6.60;;;22.00;99.90;;;;;;5063687;28;20426;-73